createdAt,value
2022-08-11T00:01:06.758Z,99255.25
2022-08-11T00:03:43.153Z,99240.88
2022-08-11T00:06:13.937Z,99242.72
2022-08-11T00:08:42.435Z,99261.44
2022-08-11T00:11:12.506Z,99258.88
2022-08-11T00:13:45.314Z,99254.66
2022-08-11T00:18:46.353Z,99261.69
2022-08-11T00:21:14.057Z,99261.81
2022-08-11T00:23:47.705Z,99258.28
2022-08-11T00:26:15.549Z,99255.75
2022-08-11T00:28:43.228Z,99261.09
2022-08-11T00:31:21.980Z,99254.06
2022-08-11T00:33:50.942Z,99256.75
2022-08-11T00:36:25.360Z,99244.78
2022-08-11T00:38:54.464Z,99254.19
2022-08-11T00:41:42.324Z,99250.72
2022-08-11T00:44:21.249Z,99253.38
2022-08-11T00:47:09.736Z,99256.16
2022-08-11T00:49:51.797Z,99249.16
2022-08-11T00:52:44.640Z,99247.44
2022-08-11T00:55:23.699Z,99248.28
2022-08-11T00:58:11.834Z,99250.13
2022-08-11T01:01:15.973Z,99241.38
2022-08-11T01:04:01.286Z,99236.19
2022-08-11T01:07:05.740Z,99232.66
2022-08-11T01:10:07.582Z,99227.47
2022-08-11T01:12:44.810Z,99239.97
2022-08-11T01:15:33.167Z,99239.97
2022-08-11T01:18:30.816Z,99242.72
2022-08-11T01:21:15.982Z,99241.91
2022-08-11T01:24:16.504Z,99241.91
2022-08-11T01:27:19.781Z,99247.22
2022-08-11T01:30:07.385Z,99242.03
2022-08-11T01:33:11.757Z,99239.38
2022-08-11T01:35:50.361Z,99235.00
2022-08-11T01:38:32.022Z,99236.69
2022-08-11T01:41:13.976Z,99231.50
2022-08-11T01:44:11.347Z,99225.31
2022-08-11T01:46:50.368Z,99225.56
2022-08-11T01:50:08.683Z,99235.25
2022-08-11T01:52:35.067Z,99235.50
2022-08-11T01:55:10.707Z,99241.56
2022-08-11T01:57:55.316Z,99241.56
2022-08-11T02:02:53.830Z,99239.88
2022-08-11T02:06:30.270Z,99246.19
2022-08-11T02:10:26.821Z,99231.16
2022-08-11T02:13:35.645Z,99238.31
2022-08-11T02:16:12.938Z,99240.25
2022-08-11T02:19:03.964Z,99233.09
2022-08-11T02:22:19.160Z,99234.91
2022-08-11T02:24:55.469Z,99234.31
2022-08-11T02:27:28.009Z,99240.25
2022-08-11T02:30:16.649Z,99242.09
2022-08-11T02:33:20.864Z,99238.69
2022-08-11T02:36:08.891Z,99230.69
2022-08-11T02:39:03.736Z,99236.16
2022-08-11T02:42:34.890Z,99237.94
2022-08-11T02:45:28.708Z,99237.13
2022-08-11T02:48:28.152Z,99236.25
2022-08-11T02:51:14.705Z,99235.41
2022-08-11T02:54:07.206Z,99235.41
2022-08-11T02:56:54.592Z,99230.22
2022-08-11T02:59:46.112Z,99228.41
2022-08-11T03:02:46.608Z,99231.19
2022-08-11T03:05:37.309Z,99226.00
2022-08-11T03:08:25.548Z,99224.31
2022-08-11T03:11:30.233Z,99230.47
2022-08-11T03:14:28.325Z,99229.63
2022-08-11T03:17:03.096Z,99228.75
2022-08-11T03:19:57.344Z,99234.97
2022-08-11T03:22:38.822Z,99229.63
2022-08-11T03:25:12.863Z,99235.94
2022-08-11T03:28:25.989Z,99231.44
2022-08-11T03:31:10.111Z,99236.75
2022-08-11T03:34:08.087Z,99241.25
2022-08-11T03:37:17.151Z,99168.44
2022-08-11T03:40:03.526Z,99235.09
2022-08-11T03:43:02.845Z,99240.53
2022-08-11T03:45:58.428Z,99238.00
2022-08-11T03:48:43.286Z,99189.59
2022-08-11T03:51:45.027Z,99227.34
2022-08-11T03:54:39.872Z,99238.00
2022-08-11T03:57:35.941Z,99235.47
2022-08-11T04:00:39.024Z,99233.63
2022-08-11T04:03:20.669Z,99229.28
2022-08-11T04:06:09.220Z,99226.59
2022-08-11T04:08:54.651Z,99221.41
2022-08-11T04:11:33.291Z,99222.25
2022-08-11T04:14:46.976Z,99222.25
2022-08-11T04:17:45.424Z,99227.56
2022-08-11T04:20:49.568Z,99223.25
2022-08-11T04:24:34.813Z,99224.06
2022-08-11T04:26:34.134Z,99225.91
2022-08-11T04:30:03.365Z,99228.56
2022-08-11T04:32:59.884Z,99230.38
2022-08-11T04:35:32.613Z,99228.66
2022-08-11T04:38:32.505Z,99233.03
2022-08-11T04:41:27.997Z,99244.66
2022-08-11T04:44:18.695Z,99239.34
2022-08-11T04:46:59.583Z,99242.00
2022-08-11T04:50:39.093Z,99239.34
2022-08-11T04:54:08.695Z,99236.81
2022-08-11T04:56:56.730Z,99251.81
2022-08-11T05:00:01.021Z,99252.66
2022-08-11T05:02:56.936Z,99246.63
2022-08-11T05:05:59.844Z,99251.81
2022-08-11T05:08:47.690Z,99254.50
2022-08-11T05:11:36.008Z,99262.34
2022-08-11T05:14:37.944Z,99265.00
2022-08-11T05:17:29.591Z,99251.38
2022-08-11T05:20:14.848Z,99247.72
2022-08-11T05:23:09.616Z,99259.81
2022-08-11T05:26:42.636Z,99271.09
2022-08-11T05:29:19.296Z,99270.13
2022-08-11T05:32:19.504Z,99261.16
2022-08-11T05:34:56.718Z,99258.47
2022-08-11T05:37:29.041Z,99257.47
2022-08-11T05:40:40.377Z,99257.38
2022-08-11T05:43:31.741Z,99270.72
2022-08-11T05:46:19.962Z,99269.00
2022-08-11T05:49:09.720Z,99274.06
2022-08-11T05:52:05.317Z,99271.69
2022-08-11T05:55:06.391Z,99272.28
2022-08-11T05:57:48.663Z,99277.47
2022-08-11T06:00:19.494Z,99280.00
2022-08-11T06:02:57.604Z,99280.88
2022-08-11T06:07:49.310Z,99287.78
2022-08-11T06:14:46.280Z,99279.78
2022-08-11T06:17:17.023Z,99279.78
2022-08-11T06:19:47.751Z,99287.63
2022-08-11T06:22:20.954Z,99288.47
2022-08-11T06:24:55.869Z,99283.13
2022-08-11T06:27:24.503Z,99276.00
2022-08-11T06:29:54.795Z,99275.03
2022-08-11T06:32:27.738Z,99276.75
2022-08-11T06:35:12.685Z,99288.38
2022-08-11T06:38:21.262Z,99265.97
2022-08-11T06:41:10.474Z,99284.72
2022-08-11T06:43:56.068Z,99271.41
2022-08-11T06:46:53.180Z,99273.06
2022-08-11T06:49:50.693Z,99267.75
2022-08-11T06:52:35.706Z,99276.59
2022-08-11T06:55:55.427Z,99272.09
2022-08-11T06:58:16.486Z,99268.59
2022-08-11T07:00:45.315Z,99271.28
2022-08-11T07:03:16.727Z,99275.63
2022-08-11T07:05:51.952Z,99276.47
2022-08-11T07:09:15.101Z,99271.97
2022-08-11T07:12:21.458Z,99278.16
2022-08-11T07:15:15.486Z,99268.84
2022-08-11T07:17:49.786Z,99269.31
2022-08-11T07:20:36.969Z,99269.56
2022-08-11T07:23:27.488Z,99265.66
2022-08-11T07:26:15.196Z,99256.84
2022-08-11T07:28:56.762Z,99259.38
2022-08-11T07:31:42.165Z,99261.19
2022-08-11T07:34:18.143Z,99255.88
2022-08-11T07:36:54.521Z,99255.88
2022-08-11T07:39:48.377Z,99265.56
2022-08-11T07:42:20.507Z,99260.22
2022-08-11T07:45:08.267Z,99253.19
2022-08-11T07:47:55.670Z,99256.69
2022-08-11T07:50:41.297Z,99254.03
2022-08-11T07:53:08.717Z,99259.38
2022-08-11T07:55:51.837Z,99254.31
2022-08-11T07:58:45.712Z,99256.56
2022-08-11T08:01:41.328Z,99245.06
2022-08-11T08:04:30.591Z,99240.72
2022-08-11T08:07:19.291Z,99250.41
2022-08-11T08:10:07.147Z,99247.75
2022-08-11T08:12:53.369Z,99252.25
2022-08-11T08:15:40.655Z,99246.41
2022-08-11T08:18:26.900Z,99257.44
2022-08-11T08:20:56.918Z,99252.94
2022-08-11T08:23:35.740Z,99246.63
2022-08-11T08:26:04.856Z,99246.50
2022-08-11T08:28:33.798Z,99248.19
2022-08-11T08:31:01.075Z,99249.06
2022-08-11T08:33:31.081Z,99248.94
2022-08-11T08:36:12.702Z,99250.63
2022-08-11T08:38:47.707Z,99222.19
2022-08-11T08:41:22.890Z,99235.47
2022-08-11T08:43:55.831Z,99239.81
2022-08-11T08:46:30.250Z,99231.09
2022-08-11T08:49:01.988Z,99230.13
2022-08-11T08:51:58.759Z,99223.81
2022-08-11T08:54:34.009Z,99225.53
2022-08-11T08:57:05.217Z,99219.31
2022-08-11T08:59:47.664Z,99223.97
2022-08-11T09:02:20.546Z,99222.72
2022-08-11T09:05:02.521Z,99230.72
2022-08-11T09:07:35.430Z,99229.88
2022-08-11T09:10:08.468Z,99223.69
2022-08-11T09:12:38.894Z,99222.84
2022-08-11T09:15:09.137Z,99224.41
2022-08-11T09:17:40.088Z,99223.44
2022-08-11T09:20:15.012Z,99221.47
2022-08-11T09:26:11.888Z,99220.41
2022-08-11T09:28:39.188Z,99219.41
2022-08-11T09:31:06.944Z,99217.59
2022-08-11T09:33:34.180Z,99215.63
2022-08-11T09:36:25.303Z,99220.13
2022-08-11T09:39:11.978Z,99213.81
2022-08-11T09:42:01.845Z,99212.00
2022-08-11T09:44:46.400Z,99208.34
2022-08-11T09:47:20.840Z,99205.69
2022-08-11T09:49:49.028Z,99206.53
2022-08-11T10:09:24.213Z,99187.88
2022-08-11T10:11:58.693Z,99191.44
2022-08-11T10:14:46.400Z,99188.03
2022-08-11T10:17:16.084Z,99188.25
2022-08-11T10:20:03.946Z,99186.03
2022-08-11T10:22:51.895Z,99167.38
2022-08-11T10:25:37.715Z,99169.38
2022-08-11T10:28:28.775Z,99168.13
2022-08-11T10:31:13.730Z,99159.88
2022-08-11T10:34:03.838Z,99161.44
2022-08-11T10:37:03.003Z,99155.16
2022-08-11T10:39:29.933Z,99159.50
2022-08-11T10:42:25.825Z,99147.28
2022-08-11T10:45:25.818Z,99135.50
2022-08-11T10:47:55.594Z,99135.50
2022-08-11T10:50:42.039Z,99134.53
2022-08-11T10:53:28.450Z,99121.19
2022-08-11T10:56:15.256Z,99118.38
2022-08-11T10:58:47.722Z,99110.38
2022-08-11T11:01:24.368Z,99108.44
2022-08-11T11:03:58.012Z,99109.31
2022-08-11T11:06:43.968Z,99100.19
2022-08-11T11:09:32.753Z,99089.44
2022-08-11T11:12:48.689Z,99095.69
2022-08-11T11:15:38.149Z,99104.56
2022-08-11T11:18:09.462Z,99106.34
2022-08-11T11:20:49.043Z,99101.03
2022-08-11T11:23:38.256Z,99096.56
2022-08-11T11:26:27.334Z,99096.56
2022-08-11T11:29:11.493Z,99088.56
2022-08-11T11:31:50.490Z,99092.19
2022-08-11T11:34:53.662Z,99098.34
2022-08-11T11:37:23.047Z,99092.19
2022-08-11T11:39:55.142Z,99099.22
2022-08-11T11:42:22.115Z,99106.34
2022-08-11T11:44:49.407Z,99122.38
2022-08-11T11:47:21.753Z,99116.19
2022-08-11T11:49:49.914Z,99117.91
2022-08-11T11:52:19.679Z,99101.88
2022-08-11T11:54:53.383Z,99094.72
2022-08-11T11:57:40.516Z,99083.59
2022-08-11T12:00:33.497Z,99090.09
2022-08-11T12:03:03.699Z,99086.56
2022-08-11T12:05:34.237Z,99071.44
2022-08-11T12:08:18.634Z,99076.63
2022-08-11T12:10:45.402Z,99067.78
2022-08-11T12:13:32.060Z,99069.47
2022-08-11T12:16:31.639Z,99066.69
2022-08-11T12:18:53.524Z,99061.34
2022-08-11T12:21:21.932Z,99045.34
2022-08-11T12:24:08.820Z,99046.16
2022-08-11T12:27:01.459Z,99032.00
2022-08-11T12:29:35.393Z,99033.69
2022-08-11T12:32:07.213Z,99031.03
2022-08-11T12:34:34.140Z,99037.19
2022-08-11T12:37:06.911Z,99020.03
2022-08-11T12:40:10.937Z,99029.03
2022-08-11T12:43:24.224Z,99027.09
2022-08-11T12:46:14.625Z,99027.94
2022-08-11T12:49:04.455Z,99028.78
2022-08-11T12:52:10.996Z,99028.78
2022-08-11T12:54:52.264Z,99035.81
2022-08-11T12:57:55.776Z,99056.19
2022-08-11T13:00:42.584Z,99080.31
2022-08-11T13:03:29.812Z,99106.16
2022-08-11T13:05:59.624Z,99091.97
2022-08-11T13:08:31.749Z,99093.06
2022-08-11T13:11:19.448Z,99100.09
2022-08-11T13:13:55.085Z,99102.09
2022-08-11T13:16:28.057Z,99112.75
2022-08-11T13:18:57.428Z,99126.09
2022-08-11T13:21:24.656Z,99134.09
2022-08-11T13:24:01.233Z,99134.94
2022-08-11T13:26:46.627Z,99125.94
2022-08-11T13:29:17.903Z,99141.97
2022-08-11T13:31:45.750Z,99154.44
2022-08-11T13:34:12.957Z,99164.28
2022-08-11T13:36:40.754Z,99176.06
2022-08-11T13:39:09.503Z,99174.34
2022-08-11T13:44:27.155Z,99155.09
2022-08-11T13:46:58.077Z,99155.09
2022-08-11T13:49:26.792Z,99153.41
2022-08-11T13:51:55.606Z,99143.72
2022-08-11T13:54:25.515Z,99134.03
2022-08-11T13:56:56.068Z,99136.72
2022-08-11T13:59:30.840Z,99136.81
2022-08-11T14:02:22.978Z,99127.00
2022-08-11T14:05:04.159Z,99113.31
2022-08-11T14:07:45.553Z,99129.69
2022-08-11T14:10:14.738Z,99125.31
2022-08-11T14:13:05.216Z,99124.34
2022-08-11T14:15:34.057Z,99128.81
2022-08-11T14:18:07.525Z,99119.22
2022-08-11T14:20:58.817Z,99126.28
2022-08-11T14:23:41.669Z,99121.88
2022-08-11T14:26:29.081Z,99117.41
2022-08-11T14:29:06.039Z,99109.53
2022-08-11T14:31:35.626Z,99108.69
2022-08-11T14:34:06.471Z,99103.34
2022-08-11T14:36:40.741Z,99103.22
2022-08-11T14:39:13.395Z,99099.63
2022-08-11T14:42:10.802Z,99093.31
2022-08-11T14:45:01.826Z,99092.34
2022-08-11T14:47:31.857Z,99091.34
2022-08-11T14:50:11.623Z,99091.22
2022-08-11T14:52:44.624Z,99081.38
2022-08-11T14:55:31.945Z,99069.75
2022-08-11T14:58:01.726Z,99072.41
2022-08-11T15:00:28.932Z,99066.09
2022-08-11T15:03:12.671Z,99058.94
2022-08-11T15:05:41.788Z,99057.13
2022-08-11T15:08:51.216Z,99049.13
2022-08-11T15:11:39.089Z,99057.94
2022-08-11T15:14:08.499Z,99058.81
2022-08-11T15:16:56.735Z,99061.47
2022-08-11T15:19:25.984Z,99039.09
2022-08-11T15:22:11.161Z,99058.81
2022-08-11T15:24:38.449Z,99055.44
2022-08-11T15:27:30.276Z,99065.22
2022-08-11T15:30:32.074Z,99066.09
2022-08-11T15:33:20.286Z,98991.50
2022-08-11T15:36:05.744Z,99068.19
2022-08-11T15:38:36.359Z,99069.16
2022-08-11T15:41:25.226Z,99062.84
2022-08-11T15:44:13.003Z,99063.69
2022-08-11T15:46:50.072Z,99062.72
2022-08-11T15:50:11.665Z,99059.22
2022-08-11T15:52:19.382Z,99058.34
2022-08-11T15:54:48.417Z,99059.22
2022-08-11T15:57:39.940Z,99052.31
2022-08-11T16:00:28.443Z,99058.34
2022-08-11T16:03:16.828Z,99061.88
2022-08-11T16:05:44.919Z,99068.91
2022-08-11T16:08:15.336Z,99066.25
2022-08-11T16:10:44.800Z,99054.56
2022-08-11T16:13:14.852Z,99050.94
2022-08-11T16:16:06.131Z,99050.94
2022-08-11T16:18:41.980Z,99049.13
2022-08-11T16:21:34.371Z,99037.00
2022-08-11T16:24:09.347Z,99049.94
2022-08-11T16:27:08.629Z,99052.47
2022-08-11T16:29:43.614Z,99040.16
2022-08-11T16:32:18.157Z,99038.31
2022-08-11T16:35:06.755Z,99031.41
2022-08-11T16:37:53.764Z,99044.47
2022-08-11T16:40:22.537Z,99038.31
2022-08-11T16:43:29.586Z,99042.66
2022-08-11T16:46:17.033Z,99065.81
2022-08-11T16:48:47.960Z,99047.13
2022-08-11T16:51:15.108Z,99025.75
2022-08-11T16:53:49.022Z,99036.75
2022-08-11T16:56:42.084Z,99042.81
2022-08-11T16:59:18.246Z,99028.03
2022-08-11T17:01:55.808Z,99029.47
2022-08-11T17:05:05.845Z,99022.84
2022-08-11T17:07:51.545Z,99038.56
2022-08-11T17:10:54.763Z,99033.19
2022-08-11T17:13:31.632Z,99054.72
2022-08-11T17:16:08.438Z,99038.03
2022-08-11T17:18:44.647Z,99043.13
2022-08-11T17:21:33.625Z,99045.28
2022-08-11T17:24:10.844Z,99035.97
2022-08-11T17:26:56.896Z,99033.75
2022-08-11T17:29:54.921Z,99023.59
2022-08-11T17:32:57.093Z,99046.00
2022-08-11T17:35:34.889Z,99041.38
2022-08-11T17:38:18.800Z,99042.91
2022-08-11T17:41:05.626Z,99043.63
2022-08-11T17:43:51.752Z,99043.50
2022-08-11T17:46:38.848Z,99044.38
2022-08-11T17:49:07.803Z,99045.19
2022-08-11T17:51:56.069Z,99047.72
2022-08-11T17:54:42.947Z,99055.72
2022-08-11T17:57:31.689Z,99059.25
2022-08-11T18:00:00.547Z,99071.03
2022-08-11T18:02:59.309Z,99080.59
2022-08-11T18:05:28.880Z,99075.41
2022-08-11T18:08:17.277Z,99081.44
2022-08-11T18:11:04.527Z,99075.25
2022-08-11T18:13:56.957Z,99072.59
2022-08-11T18:16:42.715Z,99078.75
2022-08-11T18:19:30.721Z,99072.84
2022-08-11T18:22:28.219Z,99086.63
2022-08-11T18:25:20.169Z,99080.25
2022-08-11T18:28:09.437Z,99085.78
2022-08-11T18:31:03.111Z,99084.97
2022-08-11T18:34:09.246Z,99092.09
2022-08-11T18:37:00.049Z,99099.13
2022-08-11T18:39:54.730Z,99098.31
2022-08-11T18:42:42.852Z,99089.44
2022-08-11T18:45:33.057Z,99093.06
2022-08-11T18:48:37.141Z,99098.69
2022-08-11T18:51:30.584Z,99104.16
2022-08-11T18:54:26.590Z,99093.50
2022-08-11T18:57:15.103Z,99084.63
2022-08-11T19:00:02.434Z,99081.13
2022-08-11T19:02:50.959Z,99073.88
2022-08-11T19:06:35.578Z,99091.81
2022-08-11T19:08:58.815Z,99093.59
2022-08-11T19:11:45.661Z,99093.59
2022-08-11T19:14:32.147Z,99080.25
2022-08-11T19:17:44.080Z,99089.13
2022-08-11T19:20:42.233Z,99101.59
2022-08-11T19:23:30.082Z,99098.94
2022-08-11T19:26:17.636Z,99102.59
2022-08-11T19:29:05.670Z,99091.91
2022-08-11T19:31:52.469Z,99092.91
2022-08-11T19:34:42.913Z,99091.06
2022-08-11T19:37:29.785Z,99086.72
2022-08-11T19:40:23.369Z,99085.75
2022-08-11T19:43:16.900Z,99085.88
2022-08-11T19:46:15.111Z,99080.41
2022-08-11T19:49:03.475Z,99078.72
2022-08-11T19:51:53.842Z,99091.91
2022-08-11T19:54:43.579Z,99075.06
2022-08-11T19:57:29.948Z,99082.25
2022-08-11T20:00:16.715Z,99074.25
2022-08-11T20:03:08.732Z,99062.28
2022-08-11T20:05:59.558Z,99071.44
2022-08-11T20:08:47.989Z,99070.47
2022-08-11T20:11:34.740Z,99068.47
2022-08-11T20:14:21.424Z,99070.19
2022-08-11T20:17:07.453Z,99056.25
2022-08-11T20:19:57.203Z,99065.69
2022-08-11T20:22:45.269Z,99065.69
2022-08-11T20:25:31.718Z,99025.25
2022-08-11T20:28:17.122Z,99051.47
2022-08-11T20:31:04.349Z,99063.16
2022-08-11T20:33:52.108Z,99057.22
2022-08-11T20:36:37.509Z,99060.38
2022-08-11T20:41:58.312Z,99055.88
2022-08-11T20:44:47.792Z,99044.69
2022-08-11T20:47:59.040Z,99069.19
2022-08-11T20:50:46.007Z,99070.06
2022-08-11T20:53:36.052Z,99075.50
2022-08-11T20:56:28.822Z,99066.69
2022-08-11T20:59:18.467Z,99069.34
2022-08-11T21:02:09.879Z,99071.16
2022-08-11T21:05:00.056Z,99072.97
2022-08-11T21:07:57.241Z,99072.97
2022-08-11T21:10:51.754Z,99072.53
2022-08-11T21:13:41.407Z,99070.56
2022-08-11T21:16:32.101Z,99081.00
2022-08-11T21:19:59.752Z,99085.50
2022-08-11T21:22:42.401Z,99082.81
2022-08-11T21:25:46.872Z,99085.50
2022-08-11T21:28:34.812Z,99103.16
2022-08-11T21:31:22.216Z,99082.81
2022-08-11T21:34:09.653Z,99077.88
2022-08-11T21:36:55.451Z,99101.34
2022-08-11T21:39:42.319Z,99089.81
2022-08-11T21:42:29.462Z,99102.34
2022-08-11T21:45:16.837Z,99104.16
2022-08-11T21:48:03.607Z,99101.50
2022-08-11T21:50:48.900Z,99105.00
2022-08-11T21:53:34.692Z,99104.16
2022-08-11T21:56:20.503Z,99098.84
2022-08-11T21:59:09.916Z,99096.16
2022-08-11T22:01:55.523Z,99098.94
2022-08-11T22:04:42.847Z,99097.97
2022-08-11T22:07:31.885Z,99107.66
2022-08-11T22:10:40.440Z,99109.50
2022-08-11T22:13:29.922Z,99101.50
2022-08-11T22:16:15.660Z,99104.03
2022-08-11T22:19:01.462Z,99113.84
2022-08-11T22:22:02.349Z,99112.16
2022-08-11T22:24:51.994Z,99113.84
2022-08-11T22:27:38.420Z,99111.16
2022-08-11T22:30:29.408Z,99106.69
2022-08-11T22:33:24.484Z,99100.50
2022-08-11T22:36:14.609Z,99087.00
2022-08-11T22:39:01.452Z,99090.69
2022-08-11T22:41:47.363Z,99087.16
2022-08-11T22:44:32.588Z,99097.81
2022-08-11T22:47:19.987Z,99090.81
2022-08-11T22:50:13.712Z,99087.16
2022-08-11T22:53:00.206Z,99084.78
2022-08-11T22:55:46.531Z,99089.00
2022-08-11T22:58:33.856Z,99080.16
2022-08-11T23:01:20.284Z,99074.94
2022-08-11T23:04:06.519Z,99086.47
2022-08-11T23:06:57.358Z,99082.09
2022-08-11T23:09:43.839Z,99073.53
2022-08-11T23:12:31.228Z,99076.91
2022-08-11T23:15:18.016Z,99071.69
2022-08-11T23:18:03.854Z,99048.47
2022-08-11T23:20:50.758Z,99062.03
2022-08-11T23:23:38.955Z,99061.00
2022-08-11T23:26:24.722Z,99054.13
2022-08-11T23:31:50.995Z,99057.50
2022-08-11T23:35:04.441Z,99067.34
2022-08-11T23:37:48.137Z,99049.66
2022-08-11T23:40:33.711Z,99053.28
2022-08-11T23:43:19.454Z,99051.59
2022-08-11T23:46:04.722Z,99054.25
2022-08-11T23:48:50.965Z,99035.38
2022-08-11T23:51:41.305Z,99048.78
2022-08-11T23:54:28.108Z,99048.06
2022-08-11T23:59:39.437Z,99041.88
